Latest Coastal Weather Observations for Kingfish B

IDV60701

Issued at 4:02 am EDT Saturday 15 December 2018 (issued every 10 minutes, with the page automatically refreshed every 10 minutes)

About coastal observations | Map of coastal stations | Coastal observations for VIC | Marine services | Other Formats
Station Details ID: 400139 Name: KINGFISH B (PLATFORM) Lat: -38.60 Lon: 148.19 Height: 31.4 m
Data from the previous 72 hours. | See also: Recent months for locations in Victoria
Date/Time
EDT
Wind Sea
Height
m
Swell Vis
km
Cloud Weather Temp
°C
Press
hPa
Rain since
9am
mm
Dir  Spd
kts
Gust
kts
Height
m
Period
s
Dir
15/04:00am E 22 24 - - - - - - - 18.5 1006.3 -
15/03:50am E 23 27 - - - - - - - 18.5 1006.4 -
15/03:40am E 23 27 - - - - - - - 18.4 1006.5 -
15/03:30am E 21 25 - - - - - - - 18.5 1006.7 -
15/03:20am E 18 24 - - - - - - - 18.5 1006.7 -
15/03:10am E 15 16 - - - - - - - 18.5 1006.7 -
15/03:00am E 15 17 - - - - - - - 18.5 1006.5 -
15/02:50am E 16 18 - - - - - - - 18.5 1006.3 -
15/02:40am E 17 21 - - - - - - - 18.6 1006.4 -
15/02:30am E 19 23 - - - - - - - 18.6 1006.8 -
15/02:20am E 23 28 - - - - - - - 18.5 1006.7 -
15/02:10am E 23 28 - - - - - - - 18.5 1006.8 -
15/01:40am ESE 29 33 - - - - - - - 18.4 1005.7 -
15/01:30am ESE 27 31 - - - - - - - 18.4 1006.5 -
15/01:20am ESE 24 28 - - - - - - - 18.3 1007.4 -
15/01:10am E 22 26 - - - - - - - 18.4 1007.4 -
15/01:00am E 25 30 - - - - - - - 18.4 1007.3 -
15/12:40am E 28 32 - - - - - - - 18.4 1007.1 -
15/12:30am E 28 34 - - - - - - - 18.5 1007.1 -
15/12:10am E 28 32 - - - - - - - 18.5 1007.5 -
15/12:00am E 26 30 - - - - - - - 18.5 1007.6 -
 
Date/Time
EDT
Wind Sea
Height
m
Swell Vis
km
Cloud Weather Temp
°C
Press
hPa
Rain since
9am
mm
Dir  Spd
kts
Gust
kts
Height
m
Period
s
Dir
14/11:30pm E 30 35 - - - - - - - 18.5 1007.2 -
14/11:20pm E 32 38 - - - - - - - 18.5 1007.1 -
14/11:10pm E 32 37 - - - - - - - 18.5 1006.9 -
14/11:00pm E 31 37 - - - - - - - 18.5 1006.6 -
14/10:50pm E 32 38 - - - - - - - 18.5 1006.6 -
14/10:40pm E 32 38 - - - - - - - 18.5 1006.6 -
14/10:30pm E 28 34 - - - - - - - 18.5 1006.7 -
14/10:20pm E 27 33 - - - - - - - 18.5 1006.7 -
14/10:10pm E 27 33 - - - - - - - 18.5 1006.7 -
14/10:00pm E 27 31 - - - - - - - 18.5 1006.8 -
14/09:50pm E 26 33 - - - - - - - 18.5 1007.0 -
14/09:40pm E 15 24 - - - - - - - 18.5 1007.3 -
14/09:30pm E 14 20 - - - - - - - 18.5 1007.3 -
14/09:20pm E 10 17 - - - - - - - 18.6 1007.4 -
14/09:10pm E 11 14 - - - - - - - 18.5 1007.8 -
14/09:00pm E 15 19 - - - - - - - 18.5 1007.6 -
14/08:50pm E 19 24 - - - - - - - 18.5 1007.2 -
14/08:10pm E 19 24 - - - - - - - 18.8 1007.0 -
14/08:00pm E 24 26 - - - - - - - 18.8 1006.6 -
14/07:40pm ENE 21 28 - - - - - - - 18.8 1006.2 -
14/07:30pm E 22 27 - - - - - - - 18.8 1006.3 -
14/07:20pm E 24 28 - - - - - - - 18.8 1006.0 -
14/07:10pm E 24 28 - - - - - - - 18.8 1005.8 -
14/07:00pm E 26 30 - - - - - - - 18.9 1005.6 -
14/06:50pm ENE 28 32 - - - - - - - 18.9 1005.5 -
14/06:40pm E 28 33 - - - - - - - 18.9 1005.2 -
14/06:10pm E 28 31 - - - - - - - 18.9 1004.8 -
14/06:00pm E 28 31 - - - - - - - 19.0 1004.7 -
14/05:40pm E 28 31 - - - - - - - 19.0 1004.7 -
14/05:30pm E 28 31 - - - - - - - 19.1 1004.7 -
14/05:20pm E 28 32 - - - - - - - 19.1 1004.6 -
14/04:40pm E 26 30 - - - - - - - 19.3 1004.9 -
14/04:30pm E 26 30 - - - - - - - 19.4 1005.0 -
14/04:20pm E 27 31 - - - - - - - 19.5 1005.0 -
14/04:10pm E 26 30 - - - - - - - 19.4 1005.0 -
14/04:00pm ENE 27 32 - - - - - - - 19.4 1005.1 -
14/03:50pm ENE 25 31 - - - - - - - 19.4 1005.0 -
14/03:40pm E 24 29 - - - - - - - 19.3 1004.6 -
14/03:30pm E 25 30 - - - - - - - 19.3 1004.8 -
14/03:20pm E 23 26 - - - - - - - 19.2 1004.9 -
14/03:00pm E 22 25 - - - - - - - 19.2 1004.8 -
14/02:50pm E 27 31 - - - - - - - 19.1 1004.5 -
14/02:40pm E 29 33 - - - - - - - 19.1 1004.5 -
14/02:30pm E 28 32 - - - - - - - 19.2 1004.4 -
14/02:10pm E 25 28 - - - - - - - 19.1 1004.4 -
14/02:00pm E 26 29 - - - - - - - 19.1 1004.4 -
14/01:50pm E 25 28 - - - - - - - 19.1 1004.3 -
14/01:40pm E 24 27 - - - - - - - 19.1 1004.2 -
14/01:30pm E 23 26 - - - - - - - 18.9 1004.1 -
14/01:20pm E 22 25 - - - - - - - 18.8 1004.1 -
14/01:10pm E 21 24 - - - - - - - 18.8 1004.3 -
14/01:00pm E 20 23 - - - - - - - 18.9 1004.5 -
14/12:40pm E 21 26 - - - - - - - 18.7 1004.6 -
14/12:30pm E 21 25 - - - - - - - 18.6 1004.5 -
14/12:10pm E 22 26 - - - - - - - 18.4 1004.5 -
14/12:00pm E 22 26 - - - - - - - 18.4 1004.3 -
14/11:50am E 22 27 - - - - - - - 18.4 1004.4 -
14/11:30am E 24 29 - - - - - - - 18.3 1004.0 -
14/11:20am E 24 29 - - - - - - - 18.3 1004.1 -
14/11:10am E 24 30 - - - - - - - 18.3 1004.0 -
14/11:00am E 25 30 - - - - - - - 18.3 1004.1 -
14/10:50am E 25 30 - - - - - - - 18.3 1004.2 -
14/10:30am E 24 29 - - - - - - - 18.3 1004.1 -
14/10:10am E 25 30 - - - - - - - 18.4 1003.9 -
14/10:00am E 23 30 - - - - - - - 18.3 1004.1 -
14/09:50am E 23 28 - - - - - - - 18.4 1004.0 -
14/09:30am E 22 30 - - - - - - - 18.4 1003.8 -
14/09:20am E 23 28 - - - - - - - 18.4 1003.9 -
14/09:10am E 25 29 - - - - - - - 18.5 1003.7 -
14/09:00am E 25 31 - - - - - - - 18.5 1003.4 -
14/08:50am E 25 28 - - - - - - - 18.5 1003.3 -
14/08:40am E 24 28 - - - - - - - 18.6 1003.3 -
14/08:30am E 27 32 - - - - - - - 18.6 1003.1 -
14/08:20am E 27 33 - - - - - - - 18.6 1002.9 -
14/08:10am E 26 32 - - - - - - - 18.5 1002.7 -
14/08:00am E 26 30 - - - - - - - 18.5 1002.6 -
14/07:50am E 28 33 - - - - - - - 18.6 1002.3 -
14/07:20am E 30 35 - - - - - - - 18.7 1002.2 -
14/07:10am E 29 34 - - - - - - - 18.6 1001.9 -
14/07:00am E 29 33 - - - - - - - 18.6 1001.7 -
14/06:40am E 28 32 - - - - - - - 18.5 1001.4 -
14/06:30am E 28 32 - - - - - - - 18.5 1001.3 -
14/06:10am E 27 31 - - - - - - - 18.5 1000.9 -
14/06:00am E 27 30 - - - - - - - 18.5 1000.8 -
14/05:50am E 26 29 - - - - - - - 18.5 1000.7 -
14/05:20am E 25 30 - - - - - - - 18.5 1000.8 -
14/05:10am E 25 29 - - - - - - - 18.5 1000.9 -
14/05:00am E 26 30 - - - - - - - 18.5 1000.8 -
14/04:50am E 26 30 - - - - - - - 18.6 1000.7 -
14/04:40am ENE 26 32 - - - - - - - 18.8 1000.5 -
14/04:30am ENE 24 32 - - - - - - - 18.8 1000.5 -
14/04:20am ENE 21 28 - - - - - - - 18.8 1000.7 -
14/04:10am ENE 22 29 - - - - - - - 18.8 1000.7 -
14/04:00am ENE 22 28 - - - - - - - 18.7 1000.5 -
14/03:50am ENE 24 30 - - - - - - - 18.7 1000.5 -
14/03:40am ENE 24 31 - - - - - - - 18.7 1000.4 -
14/03:20am ENE 29 35 - - - - - - - 18.7 1000.3 -
14/02:50am E 33 38 - - - - - - - 18.6 999.7 -
14/02:40am E 34 40 - - - - - - - 18.6 999.4 -
14/02:10am E 36 41 - - - - - - - 18.5 998.8 -
14/02:00am E 31 37 - - - - - - - 18.4 999.2 -
14/01:40am E 25 32 - - - - - - - 18.3 999.7 -
14/01:30am E 28 34 - - - - - - - 18.3 999.5 -
14/01:20am E 32 36 - - - - - - - 18.3 999.1 -
14/01:10am E 32 36 - - - - - - - 18.3 999.0 -
14/12:40am E 29 33 - - - - - - - 18.5 999.4 -
14/12:30am E 28 32 - - - - - - - 18.5 999.4 -
 
Date/Time
EDT
Wind Sea
Height
m
Swell Vis
km
Cloud Weather Temp
°C
Press
hPa
Rain since
9am
mm
Dir  Spd
kts
Gust
kts
Height
m
Period
s
Dir
13/11:50pm E 27 32 - - - - - - - 18.5 999.8 -
13/11:40pm E 22 27 - - - - - - - 18.5 1000.1 -
13/11:30pm ENE 19 25 - - - - - - - 18.6 1000.3 -
13/11:20pm ENE 17 24 - - - - - - - 18.5 1000.4 -
13/11:10pm ENE 16 20 - - - - - - - 18.5 1000.5 -
13/11:00pm ENE 17 21 - - - - - - - 18.4 1000.6 -
13/10:50pm ENE 18 22 - - - - - - - 18.4 1000.6 -
13/10:40pm ENE 21 28 - - - - - - - 18.5 1000.4 -
13/10:30pm ENE 24 30 - - - - - - - 18.4 1000.1 -
13/10:10pm ENE 22 29 - - - - - - - 18.4 999.8 -
13/09:30pm ENE 23 28 - - - - - - - 18.5 999.5 -
13/09:20pm ENE 23 28 - - - - - - - 18.5 999.3 -
13/09:10pm ENE 24 31 - - - - - - - 18.6 999.1 -
13/09:00pm ENE 24 31 - - - - - - - 18.6 998.9 -
13/08:20pm ENE 25 32 - - - - - - - 18.7 998.2 -
13/08:10pm ENE 24 31 - - - - - - - 18.8 998.0 -
13/08:00pm ENE 24 30 - - - - - - - 18.8 997.8 -
13/07:50pm ENE 25 30 - - - - - - - 18.8 997.6 -
13/07:30pm ENE 25 32 - - - - - - - 18.9 997.2 -
13/07:20pm ENE 26 31 - - - - - - - 18.9 997.2 -
13/07:10pm ENE 26 32 - - - - - - - 19.0 997.0 -
13/07:00pm ENE 26 32 - - - - - - - 19.0 996.9 -
13/06:50pm ENE 24 32 - - - - - - - 19.0 997.0 -
13/06:40pm ENE 24 32 - - - - - - - 19.0 996.9 -
13/06:30pm ENE 24 30 - - - - - - - 19.1 996.8 -
13/06:20pm ENE 25 31 - - - - - - - 19.1 996.8 -
13/06:10pm ENE 27 33 - - - - - - - 19.1 996.9 -
13/06:00pm ENE 28 35 - - - - - - - 19.1 996.9 -
13/05:50pm ENE 29 37 - - - - - - - 19.1 996.8 -
13/05:40pm ENE 26 33 - - - - - - - 19.1 996.8 -
13/05:30pm ENE 25 31 - - - - - - - 19.1 996.8 -
13/05:20pm ENE 26 33 - - - - - - - 19.1 996.7 -
13/05:10pm ENE 28 35 - - - - - - - 19.2 996.9 -
13/05:00pm ENE 28 36 - - - - - - - 19.2 996.9 -
13/04:50pm ENE 31 37 - - - - - - - 19.1 996.9 -
13/04:40pm ENE 28 35 - - - - - - - 19.2 996.6 -
13/04:20pm ENE 29 36 - - - - - - - 19.2 996.3 -
13/03:50pm ENE 32 39 - - - - - - - 19.0 997.0 -
13/03:30pm ENE 32 40 - - - - - - - 19.0 997.2 -
13/03:20pm ENE 34 42 - - - - - - - 19.1 997.1 -
13/03:10pm ENE 32 39 - - - - - - - 19.0 996.4 -
13/03:00pm ENE 31 40 - - - - - - - 19.0 996.0 -
13/02:50pm ENE 34 43 - - - - - - - 19.0 996.8 -
13/02:40pm ENE 35 42 - - - - - - - 19.0 997.0 -
13/02:20pm ENE 36 41 - - - - - - - 19.0 997.1 -
13/02:00pm NE 30 35 - - - - - - - 19.1 997.9 -
13/01:50pm NE 28 31 - - - - - - - 19.1 998.2 -
13/01:30pm NE 28 33 - - - - - - - 19.2 998.4 -
13/12:20pm NE 25 30 - - - - - - - 19.2 998.4 -
13/12:10pm ENE 25 28 - - - - - - - 19.2 998.4 -
13/12:00pm ENE 23 26 - - - - - - - 19.3 998.5 -
13/11:50am NE 23 26 - - - - - - - 19.3 998.5 -
13/11:40am NE 25 29 - - - - - - - 19.3 998.6 -
13/11:10am NE 26 30 - - - - - - - 19.4 998.5 -
13/11:00am NE 26 28 - - - - - - - 19.5 998.6 -
13/10:50am NE 27 30 - - - - - - - 19.5 998.8 -
13/10:40am NE 28 32 - - - - - - - 19.5 998.8 -
13/10:30am NE 27 32 - - - - - - - 19.5 998.7 -
13/10:20am NE 28 31 - - - - - - - 19.6 998.6 -
13/10:10am NE 28 31 - - - - - - - 19.7 998.5 -
13/10:00am NE 28 31 - - - - - - - 19.8 998.5 -
13/09:50am NE 28 32 - - - - - - - 19.9 998.5 -
13/09:40am NE 27 31 - - - - - - - 20.0 998.7 -
13/09:30am NE 27 30 - - - - - - - 20.1 998.6 -
13/09:20am NE 28 31 - - - - - - - 19.8 998.5 -
13/09:10am NE 27 30 - - - - - - - 19.8 998.6 -
13/09:00am NE 27 31 - - - - - - - 19.4 998.6 -
13/08:40am NE 26 30 - - - - - - - 19.3 998.6 -
13/08:30am NE 27 30 - - - - - - - 19.2 998.6 -
13/08:10am NE 28 31 - - - - - - - 19.2 998.6 -
13/07:50am NE 28 33 - - - - - - - 19.1 998.7 -
13/07:40am NE 27 31 - - - - - - - 19.1 998.7 -
13/07:30am NE 27 31 - - - - - - - 19.0 998.8 -
13/07:20am NE 28 31 - - - - - - - 19.0 998.9 -
13/07:10am NE 27 30 - - - - - - - 19.0 998.8 -
13/07:00am NE 27 31 - - - - - - - 19.0 998.9 -
13/06:50am NE 28 32 - - - - - - - 19.0 999.0 -
13/06:40am NE 28 31 - - - - - - - 19.0 999.0 -
13/06:30am NE 28 31 - - - - - - - 19.0 999.0 -
13/06:20am NE 29 32 - - - - - - - 19.0 999.1 -
13/06:10am NE 28 32 - - - - - - - 19.0 999.2 -
13/06:00am NE 27 31 - - - - - - - 18.9 999.3 -
13/05:50am NE 28 31 - - - - - - - 18.9 999.4 -
13/05:40am NE 27 31 - - - - - - - 18.9 999.4 -
13/05:30am NE 27 29 - - - - - - - 18.9 999.4 -
13/05:20am NE 27 30 - - - - - - - 18.9 999.5 -
13/05:10am NE 27 30 - - - - - - - 18.9 999.5 -
13/03:50am ENE 26 29 - - - - - - - 18.7 1000.3 -
13/03:10am NE 26 28 - - - - - - - 18.8 1001.2 -
13/03:00am ENE 26 28 - - - - - - - 18.8 1001.4 -
13/02:30am NE 26 28 - - - - - - - 18.8 1001.9 -
13/02:20am NE 25 28 - - - - - - - 18.8 1002.2 -
13/02:10am NE 25 27 - - - - - - - 18.9 1002.4 -
 
Date/Time
EDT
Wind Sea
Height
m
Swell Vis
km
Cloud Weather Temp
°C
Press
hPa
Rain since
9am
mm
Dir  Spd
kts
Gust
kts
Height
m
Period
s
Dir
12/11:50pm NE 27 32 - - - - - - - 18.8 1004.5 -
12/11:40pm NE 27 30 - - - - - - - 18.8 1004.7 -
12/11:30pm NE 27 31 - - - - - - - 18.8 1004.8 -
12/11:10pm NE 28 31 - - - - - - - 18.8 1004.5 -
12/11:00pm NE 27 31 - - - - - - - 18.8 1004.6 -
12/10:50pm ENE 26 30 - - - - - - - 18.8 1004.7 -
12/10:40pm ENE 26 29 - - - - - - - 18.8 1004.8 -
12/10:30pm ENE 26 29 - - - - - - - 18.8 1004.9 -
12/10:20pm ENE 24 28 - - - - - - - 18.7 1005.0 -
12/09:50pm ENE 25 29 - - - - - - - 18.8 1005.1 -
12/08:50pm ENE 29 34 - - - - - - - 18.7 1004.9 -
12/08:40pm ENE 29 33 - - - - - - - 18.8 1005.2 -
12/08:30pm ENE 28 32 - - - - - - - 18.7 1005.4 -
12/08:20pm ENE 28 34 - - - - - - - 18.7 1005.4 -
12/08:00pm ENE 26 31 - - - - - - - 18.8 1005.7 -
12/07:40pm ENE 26 31 - - - - - - - 18.7 1005.9 -
12/07:30pm ENE 24 29 - - - - - - - 18.7 1005.9 -
12/07:20pm ENE 23 29 - - - - - - - 18.7 1005.9 -
12/07:10pm ENE 23 29 - - - - - - - 18.7 1006.1 -
12/06:40pm ENE 24 29 - - - - - - - 18.6 1006.3 -
12/06:30pm ENE 23 29 - - - - - - - 18.6 1006.4 -
12/06:20pm ENE 23 31 - - - - - - - 18.6 1006.6 -
12/06:10pm ENE 25 32 - - - - - - - 18.6 1006.7 -
12/06:00pm ENE 25 30 - - - - - - - 18.6 1006.9 -
12/05:50pm ENE 24 29 - - - - - - - 18.6 1007.1 -
12/05:40pm ENE 23 29 - - - - - - - 18.6 1007.3 -
12/05:30pm ENE 24 30 - - - - - - - 18.5 1007.5 -
12/05:00pm ENE 23 31 - - - - - - - 18.6 1007.5 -
12/04:50pm ENE 22 27 - - - - - - - 18.5 1007.6 -
12/04:40pm ENE 22 26 - - - - - - - 18.6 1007.7 -
12/04:30pm ENE 22 28 - - - - - - - 18.5 1007.8 -
12/04:10pm ENE 22 27 - - - - - - - 18.6 1008.3 -
12/03:50pm ENE 23 28 - - - - - - - 18.5 1008.9 -
12/03:40pm ENE 22 28 - - - - - - - 18.5 1009.1 -
12/03:30pm ENE 21 28 - - - - - - - 18.5 1009.1 -
12/03:00pm ENE 20 24 - - - - - - - 18.5 1009.5 -
12/02:40pm ENE 20 25 - - - - - - - 18.5 1009.9 -
12/02:00pm ENE 19 24 - - - - - - - 18.5 1010.3 -
12/01:50pm ENE 19 23 - - - - - - - 18.5 1010.5 -
12/01:40pm ENE 20 25 - - - - - - - 18.5 1010.8 -
12/01:30pm ENE 20 26 - - - - - - - 18.5 1011.0 -
12/01:20pm ENE 20 25 - - - - - - - 18.5 1011.1 -
12/01:10pm ENE 20 27 - - - - - - - 18.6 1011.2 -
12/01:00pm ENE 20 24 - - - - - - - 18.6 1011.1 -
12/12:50pm ENE 20 25 - - - - - - - 18.6 1011.2 -
12/12:40pm ENE 20 25 - - - - - - - 18.5 1011.3 -
12/12:30pm ENE 20 24 - - - - - - - 18.6 1011.3 -
12/12:20pm ENE 20 24 - - - - - - - 18.7 1011.3 -
12/12:10pm ENE 20 25 - - - - - - - 18.6 1011.4 -
12/12:00pm ENE 20 25 - - - - - - - 18.6 1011.6 -
12/11:50am ENE 21 26 - - - - - - - 18.6 1011.7 -
12/10:40am ENE 21 27 - - - - - - - 19.2 1012.9 -
12/10:30am ENE 20 24 - - - - - - - 18.9 1012.9 -
12/10:20am ENE 20 27 - - - - - - - 18.9 1013.1 -
12/10:10am ENE 23 27 - - - - - - - 19.0 1013.2 -
12/09:50am ENE 22 27 - - - - - - - 18.9 1013.3 -
12/09:10am ENE 24 28 - - - - - - - 18.9 1013.4 -
12/09:00am ENE 25 28 - - - - - - - 18.8 1013.3 -
12/08:50am ENE 26 30 - - - - - - - 18.8 1013.1 -
12/08:40am ENE 25 31 - - - - - - - 18.7 1013.0 -
12/08:20am ENE 22 30 - - - - - - - 18.6 1012.9 -
12/08:10am ENE 22 28 - - - - - - - 18.5 1012.9 -
12/08:00am ENE 22 31 - - - - - - - 18.4 1012.9 -
12/07:50am ENE 22 27 - - - - - - - 18.3 1013.0 -
12/07:40am ENE 23 28 - - - - - - - 18.1 1013.1 -
12/07:30am ENE 23 28 - - - - - - - 18.0 1013.2 -
12/07:20am ENE 22 29 - - - - - - - 17.8 1013.0 -
12/07:10am ENE 23 28 - - - - - - - 17.6 1013.0 -
12/07:00am ENE 22 28 - - - - - - - 17.4 1013.2 -
12/06:50am ENE 22 27 - - - - - - - 17.3 1013.3 -
12/06:40am ENE 23 28 - - - - - - - 17.3 1013.4 -
12/06:30am ENE 22 28 - - - - - - - 17.3 1013.4 -
12/06:20am ENE 22 29 - - - - - - - 17.3 1013.5 -
12/06:10am ENE 21 26 - - - - - - - 17.3 1013.5 -
12/06:00am ENE 22 27 - - - - - - - 17.3 1013.6 -
12/05:50am ENE 22 26 - - - - - - - 17.3 1013.6 -
12/05:40am ENE 22 28 - - - - - - - 17.3 1013.9 -
12/05:30am ENE 21 26 - - - - - - - 17.3 1013.9 -
12/05:20am ENE 22 27 - - - - - - - 17.4 1013.9 -
12/05:10am ENE 22 27 - - - - - - - 17.3 1014.0 -
12/05:00am ENE 21 28 - - - - - - - 17.3 1014.0 -
12/04:50am ENE 21 27 - - - - - - - 17.3 1014.2 -
12/04:40am ENE 21 26 - - - - - - - 17.3 1014.4 -
12/04:30am ENE 21 26 - - - - - - - 17.3 1014.4 -
12/04:20am ENE 23 28 - - - - - - - 17.3 1014.4 -
12/04:10am ENE 20 26 - - - - - - - 17.3 1014.5 -

Other Formats:

Comma delimited format used in spreadsheet applications
http://www.bom.gov.au/fwo/IDV60701/IDV60701.55039.axf

JavaScript Object Notation format (JSON) in row-major order
http://www.bom.gov.au/fwo/IDV60701/IDV60701.55039.json